createdAt,value
2019-04-03T00:00:56.739Z,1002.95
2019-04-03T00:01:56.744Z,1002.98
2019-04-03T00:02:56.708Z,1002.95
2019-04-03T00:03:56.700Z,1003.02
2019-04-03T00:04:56.746Z,1003.02
2019-04-03T00:05:56.695Z,1002.96
2019-04-03T00:06:56.742Z,1002.98
2019-04-03T00:07:56.694Z,1002.89
2019-04-03T00:08:56.646Z,1002.89
2019-04-03T00:09:56.649Z,1002.94
2019-04-03T00:10:56.625Z,1002.91
2019-04-03T00:11:56.622Z,1002.93
2019-04-03T00:12:56.605Z,1002.92
2019-04-03T00:13:56.587Z,1002.94
2019-04-03T00:14:56.589Z,1002.89
2019-04-03T00:15:56.568Z,1002.94
2019-04-03T00:16:56.558Z,1002.96
2019-04-03T00:17:56.647Z,1002.88
2019-04-03T00:18:56.534Z,1002.89
2019-04-03T00:19:56.521Z,1002.82
2019-04-03T00:20:56.506Z,1002.86
2019-04-03T00:21:56.496Z,1002.85
2019-04-03T00:22:56.502Z,1002.87
2019-04-03T00:23:56.484Z,1002.95
2019-04-03T00:24:56.474Z,1002.93
2019-04-03T00:25:56.453Z,1002.94
2019-04-03T00:26:56.441Z,1002.91
2019-04-03T00:27:56.498Z,1002.87
2019-04-03T00:28:56.453Z,1002.93
2019-04-03T00:29:56.410Z,1002.92
2019-04-03T00:30:56.477Z,1002.92
2019-04-03T00:31:56.383Z,1002.83
2019-04-03T00:32:56.391Z,1002.91
2019-04-03T00:33:56.365Z,1002.91
2019-04-03T00:34:56.357Z,1002.90
2019-04-03T00:35:56.346Z,1002.96
2019-04-03T00:36:56.430Z,1002.91
2019-04-03T00:37:56.334Z,1002.93
2019-04-03T00:38:56.308Z,1002.90
2019-04-03T00:39:56.351Z,1002.87
2019-04-03T00:40:56.292Z,1002.90
2019-04-03T00:41:56.276Z,1002.91
2019-04-03T00:42:56.332Z,1002.95
2019-04-03T00:43:56.250Z,1002.94
2019-04-03T00:44:56.235Z,1003.03
2019-04-03T00:45:56.231Z,1003.02
2019-04-03T00:46:56.234Z,1003.01
2019-04-03T00:47:56.226Z,1003.05
2019-04-03T00:48:56.312Z,1003.05
2019-04-03T00:49:57.061Z,1003.06
2019-04-03T00:50:57.316Z,1003.07
2019-04-03T00:51:57.613Z,1003.08
2019-04-03T00:52:57.437Z,1003.06
2019-04-03T00:53:57.969Z,1003.06
2019-04-03T00:54:56.625Z,1003.11
2019-04-03T00:55:56.493Z,1003.08
2019-04-03T00:56:56.489Z,1003.10
2019-04-03T00:57:56.846Z,1003.15
2019-04-03T00:58:56.080Z,1003.12
2019-04-03T00:59:56.423Z,1003.09
2019-04-03T01:00:56.334Z,1003.03
2019-04-03T01:01:56.506Z,1003.00
2019-04-03T01:02:58.157Z,1003.01
2019-04-03T01:03:58.115Z,1003.01
2019-04-03T01:04:57.997Z,1003.02
2019-04-03T01:05:56.698Z,1003.02
2019-04-03T01:06:56.800Z,1003.02
2019-04-03T01:07:55.987Z,1003.00
2019-04-03T01:08:55.985Z,1002.98
2019-04-03T01:09:55.965Z,1002.97
2019-04-03T01:10:55.957Z,1002.99
2019-04-03T01:11:55.930Z,1002.97
2019-04-03T01:12:55.962Z,1002.91
2019-04-03T01:13:55.943Z,1002.92
2019-04-03T01:14:56.039Z,1002.95
2019-04-03T01:15:55.937Z,1002.94
2019-04-03T01:16:55.879Z,1002.89
2019-04-03T01:17:55.865Z,1002.93
2019-04-03T01:18:55.869Z,1002.93
2019-04-03T01:19:55.845Z,1002.89
2019-04-03T01:20:55.828Z,1002.86
2019-04-03T01:21:55.822Z,1002.83
2019-04-03T01:22:55.807Z,1002.83
2019-04-03T01:23:55.854Z,1002.80
2019-04-03T01:24:55.788Z,1002.85
2019-04-03T01:25:56.100Z,1002.83
2019-04-03T01:26:55.769Z,1002.82
2019-04-03T01:27:55.760Z,1002.80
2019-04-03T01:28:56.049Z,1002.76
2019-04-03T01:29:55.727Z,1002.76
2019-04-03T01:30:55.716Z,1002.77
2019-04-03T01:31:55.788Z,1002.73
2019-04-03T01:32:55.707Z,1002.78
2019-04-03T01:33:55.710Z,1002.70
2019-04-03T01:34:55.758Z,1002.73
2019-04-03T01:35:55.660Z,1002.70
2019-04-03T01:36:55.669Z,1002.71
2019-04-03T01:37:55.642Z,1002.67
2019-04-03T01:38:55.771Z,1002.67
2019-04-03T01:39:55.618Z,1002.68
2019-04-03T01:40:55.609Z,1002.66
2019-04-03T01:41:55.623Z,1002.68
2019-04-03T01:42:55.586Z,1002.68
2019-04-03T01:43:55.673Z,1002.63
2019-04-03T01:44:56.084Z,1002.61
2019-04-03T01:45:56.945Z,1002.67
2019-04-03T01:46:57.311Z,1002.63
2019-04-03T01:47:57.354Z,1002.57
2019-04-03T01:48:58.026Z,1002.56
2019-04-03T01:49:56.806Z,1002.53
2019-04-03T01:50:55.505Z,1002.52
2019-04-03T01:51:55.488Z,1002.48
2019-04-03T01:52:55.481Z,1002.50
2019-04-03T01:53:55.470Z,1002.49
2019-04-03T01:54:55.511Z,1002.46
2019-04-03T01:55:55.450Z,1002.50
2019-04-03T01:56:55.426Z,1002.44
2019-04-03T01:57:55.413Z,1002.42
2019-04-03T01:58:55.401Z,1002.38
2019-04-03T01:59:55.409Z,1002.43
2019-04-03T02:00:55.378Z,1002.41
2019-04-03T02:01:55.372Z,1002.36
2019-04-03T02:02:55.360Z,1002.34
2019-04-03T02:03:55.352Z,1002.34
2019-04-03T02:04:55.495Z,1002.35
2019-04-03T02:05:55.327Z,1002.34
2019-04-03T02:06:55.406Z,1002.33
2019-04-03T02:07:55.307Z,1002.31
2019-04-03T02:08:55.286Z,1002.32
2019-04-03T02:09:55.495Z,1002.27
2019-04-03T02:10:55.264Z,1002.26
2019-04-03T02:11:55.252Z,1002.24
2019-04-03T02:12:55.259Z,1002.23
2019-04-03T02:13:55.231Z,1002.20
2019-04-03T02:14:55.235Z,1002.18
2019-04-03T02:15:55.217Z,1002.21
2019-04-03T02:16:55.197Z,1002.23
2019-04-03T02:17:55.320Z,1002.25
2019-04-03T02:18:55.723Z,1002.25
2019-04-03T02:19:56.379Z,1002.28
2019-04-03T02:20:57.244Z,1002.33
2019-04-03T02:21:55.144Z,1002.37
2019-04-03T02:22:55.145Z,1002.33
2019-04-03T02:23:55.119Z,1002.29
2019-04-03T02:24:55.128Z,1002.25
2019-04-03T02:25:55.093Z,1002.30
2019-04-03T02:26:55.085Z,1002.30
2019-04-03T02:27:55.072Z,1002.30
2019-04-03T02:28:55.224Z,1002.34
2019-04-03T02:29:55.070Z,1002.30
2019-04-03T02:30:55.075Z,1002.21
2019-04-03T02:31:55.027Z,1002.15
2019-04-03T02:32:56.664Z,1002.18
2019-04-03T02:33:55.010Z,1002.14
2019-04-03T02:34:55.011Z,1002.12
2019-04-03T02:35:55.467Z,1002.14
2019-04-03T02:36:54.974Z,1002.09
2019-04-03T02:37:54.964Z,1002.06
2019-04-03T02:38:54.949Z,1002.10
2019-04-03T02:39:59.115Z,1002.09
2019-04-03T02:40:56.048Z,1002.14
2019-04-03T02:41:55.042Z,1002.17
2019-04-03T02:42:54.925Z,1002.15
2019-04-03T02:43:55.152Z,1002.16
2019-04-03T02:44:55.105Z,1002.17
2019-04-03T02:45:56.408Z,1002.19
2019-04-03T02:46:54.864Z,1002.15
2019-04-03T02:47:54.861Z,1002.12
2019-04-03T02:48:54.898Z,1002.12
2019-04-03T02:49:54.836Z,1002.15
2019-04-03T02:50:54.842Z,1002.18
2019-04-03T02:51:54.806Z,1002.19
2019-04-03T02:52:58.012Z,1002.23
2019-04-03T02:53:54.792Z,1002.20
2019-04-03T02:54:54.771Z,1002.20
2019-04-03T02:55:54.778Z,1002.19
2019-04-03T02:56:54.751Z,1002.22
2019-04-03T02:57:54.736Z,1002.19
2019-04-03T02:58:55.177Z,1002.20
2019-04-03T02:59:58.267Z,1002.20
2019-04-03T03:00:54.740Z,1002.19
2019-04-03T03:01:54.912Z,1002.16
2019-04-03T03:02:54.968Z,1002.17
2019-04-03T03:03:54.668Z,1002.19
2019-04-03T03:04:55.627Z,1002.27
2019-04-03T03:05:54.680Z,1002.29
2019-04-03T03:06:54.909Z,1002.33
2019-04-03T03:07:54.620Z,1002.31
2019-04-03T03:08:54.608Z,1002.34
2019-04-03T03:09:54.846Z,1002.28
2019-04-03T03:10:54.612Z,1002.26
2019-04-03T03:11:56.108Z,1002.29
2019-04-03T03:12:54.566Z,1002.29
2019-04-03T03:13:54.565Z,1002.28
2019-04-03T03:14:54.555Z,1002.26
2019-04-03T03:15:54.583Z,1002.26
2019-04-03T03:16:54.518Z,1002.19
2019-04-03T03:17:55.892Z,1002.24
2019-04-03T03:18:54.496Z,1002.20
2019-04-03T03:19:54.774Z,1002.19
2019-04-03T03:20:54.497Z,1002.16
2019-04-03T03:21:54.473Z,1002.20
2019-04-03T03:22:54.517Z,1002.17
2019-04-03T03:23:56.204Z,1002.17
2019-04-03T03:24:54.428Z,1002.18
2019-04-03T03:25:54.594Z,1002.16
2019-04-03T03:26:54.410Z,1002.14
2019-04-03T03:27:54.405Z,1002.12
2019-04-03T03:28:54.381Z,1002.17
2019-04-03T03:29:54.478Z,1002.18
2019-04-03T03:30:59.844Z,1002.17
2019-04-03T03:32:07.913Z,1002.18
2019-04-03T03:33:22.291Z,1002.16
2019-04-03T03:34:00.518Z,1002.07
2019-04-03T03:35:07.624Z,1002.12
2019-04-03T03:35:55.952Z,1002.11
2019-04-03T03:36:58.697Z,1002.10
2019-04-03T03:37:55.378Z,1002.10
2019-04-03T03:38:54.278Z,1002.12
2019-04-03T03:39:54.426Z,1002.10
2019-04-03T03:40:54.417Z,1002.11
2019-04-03T03:41:57.509Z,1002.10
2019-04-03T03:42:54.232Z,1002.05
2019-04-03T03:43:54.359Z,1002.01
2019-04-03T03:44:54.306Z,1002.03
2019-04-03T03:45:54.202Z,1002.00
2019-04-03T03:46:54.203Z,1001.98
2019-04-03T03:47:54.605Z,1002.00
2019-04-03T03:48:54.159Z,1002.02
2019-04-03T03:49:54.266Z,1002.02
2019-04-03T03:50:57.275Z,1002.03
2019-04-03T03:51:54.146Z,1001.97
2019-04-03T03:52:54.115Z,1001.95
2019-04-03T03:53:54.130Z,1001.98
2019-04-03T03:54:54.087Z,1002.01
2019-04-03T03:55:57.506Z,1002.02
2019-04-03T03:56:54.090Z,1001.97
2019-04-03T03:57:54.060Z,1001.99
2019-04-03T03:58:54.092Z,1002.02
2019-04-03T03:59:54.053Z,1002.00
2019-04-03T04:00:57.898Z,1002.04
2019-04-03T04:01:55.132Z,1001.97
2019-04-03T04:02:54.117Z,1001.98
2019-04-03T04:03:53.982Z,1002.02
2019-04-03T04:04:53.973Z,1001.98
2019-04-03T04:05:56.023Z,1002.08
2019-04-03T04:06:54.039Z,1002.08
2019-04-03T04:07:53.944Z,1002.09
2019-04-03T04:08:53.946Z,1002.08
2019-04-03T04:09:54.135Z,1002.08
2019-04-03T04:10:58.097Z,1002.10
2019-04-03T04:11:54.921Z,1002.07
2019-04-03T04:12:53.897Z,1002.05
2019-04-03T04:13:53.891Z,1002.08
2019-04-03T04:14:56.434Z,1002.09
2019-04-03T04:15:54.151Z,1002.12
2019-04-03T04:16:53.860Z,1002.09
2019-04-03T04:17:53.850Z,1002.09
2019-04-03T04:18:57.269Z,1002.10
2019-04-03T04:19:54.177Z,1002.08
2019-04-03T04:20:53.843Z,1002.12
2019-04-03T04:21:54.023Z,1002.14
2019-04-03T04:22:54.079Z,1002.15
2019-04-03T04:23:55.958Z,1002.13
2019-04-03T04:24:53.749Z,1002.11
2019-04-03T04:25:53.739Z,1002.10
2019-04-03T04:26:53.747Z,1002.05
2019-04-03T04:27:53.719Z,1002.03
2019-04-03T04:28:53.704Z,1001.99
2019-04-03T04:29:53.693Z,1001.89
2019-04-03T04:30:53.679Z,1001.89
2019-04-03T04:31:53.690Z,1001.94
2019-04-03T04:32:53.658Z,1001.91
2019-04-03T04:33:53.655Z,1001.93
2019-04-03T04:34:53.640Z,1001.93
2019-04-03T04:35:53.629Z,1001.96
2019-04-03T04:36:55.334Z,1002.01
2019-04-03T04:37:55.298Z,1001.98
2019-04-03T04:38:53.615Z,1002.01
2019-04-03T04:39:53.582Z,1002.04
2019-04-03T04:40:53.784Z,1002.07
2019-04-03T04:41:53.658Z,1002.05
2019-04-03T04:42:53.579Z,1002.04
2019-04-03T04:43:53.533Z,1002.01
2019-04-03T04:44:53.566Z,1002.02
2019-04-03T04:45:53.514Z,1001.98
2019-04-03T04:46:53.510Z,1002.01
2019-04-03T04:47:53.515Z,1002.02
2019-04-03T04:48:53.528Z,1002.02
2019-04-03T04:49:54.210Z,1002.03
2019-04-03T04:50:55.161Z,1001.98
2019-04-03T04:51:56.531Z,1002.02
2019-04-03T04:52:53.520Z,1001.98
2019-04-03T04:53:53.444Z,1001.99
2019-04-03T04:54:53.409Z,1001.95
2019-04-03T04:55:53.403Z,1001.91
2019-04-03T04:56:53.386Z,1001.88
2019-04-03T04:57:53.394Z,1001.83
2019-04-03T04:58:53.575Z,1001.82
2019-04-03T04:59:53.353Z,1001.86
2019-04-03T05:00:53.873Z,1001.84
2019-04-03T05:01:53.335Z,1001.85
2019-04-03T05:02:53.376Z,1001.88
2019-04-03T05:03:53.932Z,1001.91
2019-04-03T05:04:55.296Z,1001.88
2019-04-03T05:05:53.526Z,1001.92
2019-04-03T05:06:53.279Z,1001.89
2019-04-03T05:07:53.760Z,1001.92
2019-04-03T05:08:53.254Z,1001.95
2019-04-03T05:09:53.242Z,1002.01
2019-04-03T05:10:53.224Z,1001.95
2019-04-03T05:11:53.219Z,1001.96
2019-04-03T05:12:53.238Z,1001.98
2019-04-03T05:13:53.416Z,1002.01
2019-04-03T05:14:53.306Z,1001.96
2019-04-03T05:15:54.097Z,1001.96
2019-04-03T05:16:54.115Z,1001.98
2019-04-03T05:17:53.171Z,1001.95
2019-04-03T05:18:53.142Z,1001.94
2019-04-03T05:19:53.128Z,1001.96
2019-04-03T05:20:53.118Z,1001.96
2019-04-03T05:21:53.502Z,1001.96
2019-04-03T05:22:55.415Z,1001.97
2019-04-03T05:23:55.748Z,1001.95
2019-04-03T05:24:53.074Z,1001.95
2019-04-03T05:25:53.236Z,1001.98
2019-04-03T05:26:53.067Z,1001.93
2019-04-03T05:27:53.040Z,1001.95
2019-04-03T05:28:57.088Z,1001.95
2019-04-03T05:29:53.026Z,1001.92
2019-04-03T05:30:53.006Z,1001.96
2019-04-03T05:31:52.994Z,1001.96
2019-04-03T05:32:52.983Z,1001.90
2019-04-03T05:33:53.182Z,1001.91
2019-04-03T05:34:52.961Z,1001.91
2019-04-03T05:35:52.959Z,1001.90
2019-04-03T05:36:52.930Z,1001.93
2019-04-03T05:37:52.925Z,1001.87
2019-04-03T05:38:53.913Z,1001.86
2019-04-03T05:39:54.670Z,1001.91
2019-04-03T05:40:52.899Z,1001.87
2019-04-03T05:41:52.883Z,1001.88
2019-04-03T05:42:52.874Z,1001.89
2019-04-03T05:43:52.874Z,1001.89
2019-04-03T05:44:52.866Z,1001.91
2019-04-03T05:45:52.832Z,1001.91
2019-04-03T05:46:52.822Z,1001.94
2019-04-03T05:47:52.816Z,1001.94
2019-04-03T05:48:52.828Z,1001.92
2019-04-03T05:49:55.588Z,1001.98
2019-04-03T05:50:52.781Z,1001.99
2019-04-03T05:51:52.766Z,1001.97
2019-04-03T05:52:52.754Z,1001.97
2019-04-03T05:53:54.167Z,1001.98
2019-04-03T05:54:52.960Z,1002.02
2019-04-03T05:55:52.942Z,1001.99
2019-04-03T05:56:52.705Z,1001.97
2019-04-03T05:57:52.902Z,1002.03
2019-04-03T05:58:56.694Z,1001.96
2019-04-03T05:59:59.936Z,1001.98
2019-04-03T06:01:04.405Z,1002.02
2019-04-03T06:01:53.662Z,1001.98
2019-04-03T06:02:53.661Z,1002.01
2019-04-03T06:03:52.681Z,1002.00
2019-04-03T06:04:52.945Z,1001.97
2019-04-03T06:05:52.613Z,1001.97
2019-04-03T06:06:52.601Z,1001.97
2019-04-03T06:07:52.704Z,1002.01
2019-04-03T06:08:52.991Z,1001.99
2019-04-03T06:09:53.862Z,1001.95
2019-04-03T06:10:52.556Z,1001.98
2019-04-03T06:11:52.866Z,1001.96
2019-04-03T06:12:52.657Z,1001.92
2019-04-03T06:13:52.798Z,1001.89
2019-04-03T06:14:52.507Z,1001.89
2019-04-03T06:15:52.986Z,1001.90
2019-04-03T06:16:55.513Z,1001.88
2019-04-03T06:17:55.105Z,1001.90
2019-04-03T06:18:52.500Z,1001.91
2019-04-03T06:19:52.456Z,1001.85
2019-04-03T06:20:52.439Z,1001.87
2019-04-03T06:21:52.426Z,1001.87
2019-04-03T06:22:52.445Z,1001.87
2019-04-03T06:23:53.018Z,1001.92
2019-04-03T06:24:52.407Z,1001.86
2019-04-03T06:25:52.382Z,1001.90
2019-04-03T06:26:52.379Z,1001.92
2019-04-03T06:27:52.623Z,1001.88
2019-04-03T06:28:52.370Z,1001.81
2019-04-03T06:29:55.085Z,1001.74
2019-04-03T06:30:52.326Z,1001.80
2019-04-03T06:31:52.320Z,1001.80
2019-04-03T06:32:54.743Z,1001.79
2019-04-03T06:33:52.311Z,1001.80
2019-04-03T06:34:52.280Z,1001.82
2019-04-03T06:35:52.275Z,1001.81
2019-04-03T06:36:52.480Z,1001.80
2019-04-03T06:37:53.145Z,1001.78
2019-04-03T06:38:52.253Z,1001.72
2019-04-03T06:39:52.236Z,1001.73
2019-04-03T06:40:52.220Z,1001.75
2019-04-03T06:41:52.351Z,1001.73
2019-04-03T06:42:52.204Z,1001.75
2019-04-03T06:43:54.045Z,1001.73
2019-04-03T06:44:53.612Z,1001.71
2019-04-03T06:45:52.173Z,1001.72
2019-04-03T06:46:54.062Z,1001.71
2019-04-03T06:47:52.301Z,1001.74
2019-04-03T06:48:55.061Z,1001.77
2019-04-03T06:49:52.112Z,1001.79
2019-04-03T06:50:52.106Z,1001.78
2019-04-03T06:51:52.093Z,1001.77
2019-04-03T06:52:53.049Z,1001.76
2019-04-03T06:53:52.102Z,1001.79
2019-04-03T06:54:52.062Z,1001.73
2019-04-03T06:55:52.217Z,1001.75
2019-04-03T06:56:53.003Z,1001.78
2019-04-03T06:57:52.026Z,1001.82
2019-04-03T06:58:52.024Z,1001.83
2019-04-03T06:59:52.187Z,1001.77
2019-04-03T07:00:54.373Z,1001.76
2019-04-03T07:01:52.837Z,1001.81
2019-04-03T07:02:52.042Z,1001.84
2019-04-03T07:03:51.959Z,1001.82
2019-04-03T07:04:51.979Z,1001.76
2019-04-03T07:05:52.134Z,1001.75
2019-04-03T07:06:52.353Z,1001.73
2019-04-03T07:07:51.927Z,1001.71
2019-04-03T07:08:51.895Z,1001.74
2019-04-03T07:09:51.910Z,1001.70
2019-04-03T07:10:55.366Z,1001.67
2019-04-03T07:11:51.863Z,1001.68
2019-04-03T07:12:51.850Z,1001.64
2019-04-03T07:13:53.853Z,1001.66
2019-04-03T07:14:51.935Z,1001.68
2019-04-03T07:15:51.824Z,1001.73
2019-04-03T07:16:51.812Z,1001.73
2019-04-03T07:17:51.805Z,1001.73
2019-04-03T07:18:51.790Z,1001.78
2019-04-03T07:19:51.794Z,1001.84
2019-04-03T07:20:52.566Z,1001.83
2019-04-03T07:21:53.020Z,1001.85
2019-04-03T07:22:51.955Z,1001.83
2019-04-03T07:23:51.726Z,1001.83
2019-04-03T07:24:51.740Z,1001.80
2019-04-03T07:25:51.708Z,1001.80
2019-04-03T07:26:51.695Z,1001.84
2019-04-03T07:27:51.797Z,1001.87
2019-04-03T07:28:51.684Z,1001.85
2019-04-03T07:29:51.789Z,1001.83
2019-04-03T07:30:53.569Z,1001.83
2019-04-03T07:31:52.784Z,1001.78
2019-04-03T07:32:51.634Z,1001.76
2019-04-03T07:33:51.812Z,1001.74
2019-04-03T07:34:51.625Z,1001.77
2019-04-03T07:35:51.596Z,1001.73
2019-04-03T07:36:51.820Z,1001.73
2019-04-03T07:37:52.072Z,1001.78
2019-04-03T07:38:51.568Z,1001.77
2019-04-03T07:39:51.574Z,1001.75
2019-04-03T07:40:52.428Z,1001.74
2019-04-03T07:41:53.318Z,1001.74
2019-04-03T07:42:51.536Z,1001.72
2019-04-03T07:43:51.512Z,1001.72
2019-04-03T07:44:51.522Z,1001.73
2019-04-03T07:45:51.477Z,1001.81
2019-04-03T07:46:51.514Z,1001.79
2019-04-03T07:47:51.463Z,1001.84
2019-04-03T07:48:51.463Z,1001.84
2019-04-03T07:49:51.472Z,1001.86
2019-04-03T07:50:51.443Z,1001.88
2019-04-03T07:51:51.406Z,1001.88
2019-04-03T07:52:51.398Z,1001.91
2019-04-03T07:53:51.680Z,1001.83
2019-04-03T07:54:52.898Z,1001.93
2019-04-03T07:55:51.615Z,1001.88
2019-04-03T07:56:51.350Z,1001.90
2019-04-03T07:57:51.745Z,1001.91
2019-04-03T07:58:51.330Z,1001.91
2019-04-03T07:59:51.321Z,1001.90
2019-04-03T08:00:51.330Z,1001.91
2019-04-03T08:01:51.332Z,1001.88
2019-04-03T08:02:51.290Z,1001.90
2019-04-03T08:03:52.088Z,1001.85
2019-04-03T08:04:51.559Z,1001.85
2019-04-03T08:05:51.276Z,1001.83
2019-04-03T08:06:51.240Z,1001.81
2019-04-03T08:07:51.245Z,1001.79
2019-04-03T08:09:05.848Z,1001.74
2019-04-03T08:09:52.222Z,1001.78
2019-04-03T08:10:51.541Z,1001.75
2019-04-03T08:11:51.303Z,1001.78
2019-04-03T08:12:51.181Z,1001.75
2019-04-03T08:13:51.250Z,1001.74
2019-04-03T08:14:51.157Z,1001.73
2019-04-03T08:15:51.172Z,1001.77
2019-04-03T08:16:51.128Z,1001.77
2019-04-03T08:17:51.516Z,1001.78
2019-04-03T08:18:51.794Z,1001.78
2019-04-03T08:19:53.730Z,1001.78
2019-04-03T08:20:51.115Z,1001.80
2019-04-03T08:21:51.379Z,1001.77
2019-04-03T08:22:51.060Z,1001.77
2019-04-03T08:23:51.060Z,1001.76
2019-04-03T08:24:53.071Z,1001.77
2019-04-03T08:25:54.055Z,1001.75
2019-04-03T08:26:52.138Z,1001.76
2019-04-03T08:27:51.014Z,1001.74
2019-04-03T08:28:50.992Z,1001.78
2019-04-03T08:29:51.003Z,1001.74
2019-04-03T08:30:51.200Z,1001.73
2019-04-03T08:31:50.980Z,1001.71
2019-04-03T08:32:50.950Z,1001.73
2019-04-03T08:33:50.952Z,1001.73
2019-04-03T08:34:51.050Z,1001.74
2019-04-03T08:35:50.936Z,1001.73
2019-04-03T08:36:50.932Z,1001.71
2019-04-03T08:37:51.006Z,1001.68
2019-04-03T08:38:50.937Z,1001.71
2019-04-03T08:39:51.062Z,1001.71
2019-04-03T08:40:52.399Z,1001.69
2019-04-03T08:41:51.140Z,1001.64
2019-04-03T08:42:50.830Z,1001.61
2019-04-03T08:43:50.829Z,1001.61
2019-04-03T08:44:50.818Z,1001.64
2019-04-03T08:45:50.819Z,1001.65
2019-04-03T08:46:50.965Z,1001.68
2019-04-03T08:47:50.779Z,1001.62
2019-04-03T08:48:50.773Z,1001.64
2019-04-03T08:49:50.748Z,1001.61
2019-04-03T08:50:50.786Z,1001.56
2019-04-03T08:51:50.761Z,1001.56
2019-04-03T08:52:50.738Z,1001.52
2019-04-03T08:53:53.719Z,1001.53
2019-04-03T08:54:50.714Z,1001.50
2019-04-03T08:55:50.720Z,1001.47
2019-04-03T08:56:50.824Z,1001.44
2019-04-03T08:57:52.526Z,1001.44
2019-04-03T08:58:50.674Z,1001.44
2019-04-03T08:59:50.650Z,1001.38
2019-04-03T09:00:50.799Z,1001.40
2019-04-03T09:01:50.745Z,1001.42
2019-04-03T09:02:50.608Z,1001.40
2019-04-03T09:03:50.885Z,1001.36
2019-04-03T09:04:50.755Z,1001.31
2019-04-03T09:05:51.573Z,1001.31
2019-04-03T09:06:51.734Z,1001.28
2019-04-03T09:07:50.795Z,1001.34
2019-04-03T09:08:50.546Z,1001.34
2019-04-03T09:09:50.944Z,1001.26
2019-04-03T09:10:50.513Z,1001.28
2019-04-03T09:11:50.522Z,1001.26
2019-04-03T09:12:50.497Z,1001.26
2019-04-03T09:13:50.525Z,1001.31
2019-04-03T09:14:50.479Z,1001.29
2019-04-03T09:15:50.458Z,1001.26
2019-04-03T09:16:50.463Z,1001.24
2019-04-03T09:17:50.435Z,1001.27
2019-04-03T09:18:50.425Z,1001.30
2019-04-03T09:19:50.416Z,1001.34
2019-04-03T09:20:50.411Z,1001.31
2019-04-03T09:21:51.280Z,1001.25
2019-04-03T09:22:53.049Z,1001.24
2019-04-03T09:23:50.364Z,1001.27
2019-04-03T09:24:50.368Z,1001.29
2019-04-03T09:25:50.500Z,1001.25
2019-04-03T09:26:50.356Z,1001.24
2019-04-03T09:27:50.324Z,1001.17
2019-04-03T09:28:50.340Z,1001.21
2019-04-03T09:29:50.706Z,1001.21
2019-04-03T09:30:50.290Z,1001.16
2019-04-03T09:31:51.422Z,1001.16
2019-04-03T09:32:53.383Z,1001.15
2019-04-03T09:33:50.252Z,1001.10
2019-04-03T09:34:50.393Z,1001.10
2019-04-03T09:35:50.238Z,1001.10
2019-04-03T09:36:50.251Z,1001.05
2019-04-03T09:37:50.222Z,1001.11
2019-04-03T09:38:50.499Z,1001.11
2019-04-03T09:39:50.182Z,1001.10
2019-04-03T09:40:50.481Z,1001.03
2019-04-03T09:41:50.983Z,1001.03
2019-04-03T09:42:51.582Z,1001.01
2019-04-03T09:43:50.149Z,1000.96
2019-04-03T09:44:50.137Z,1000.96
2019-04-03T09:45:50.192Z,1000.93
2019-04-03T09:46:50.140Z,1000.89
2019-04-03T09:47:50.103Z,1000.92
2019-04-03T09:48:50.098Z,1000.91
2019-04-03T09:49:50.092Z,1000.85
2019-04-03T09:50:50.063Z,1000.84
2019-04-03T09:51:52.548Z,1000.79
2019-04-03T09:52:50.757Z,1000.80
2019-04-03T09:53:50.370Z,1000.76
2019-04-03T09:54:50.024Z,1000.77
2019-04-03T09:55:50.002Z,1000.74
2019-04-03T09:56:59.338Z,1000.71
2019-04-03T09:57:52.814Z,1000.69
2019-04-03T09:58:49.971Z,1000.66
2019-04-03T09:59:49.967Z,1000.64
2019-04-03T10:00:49.959Z,1000.66
2019-04-03T10:01:50.226Z,1000.69
2019-04-03T10:02:51.511Z,1000.71
2019-04-03T10:03:49.920Z,1000.74
2019-04-03T10:04:49.976Z,1000.68
2019-04-03T10:05:49.897Z,1000.67
2019-04-03T10:06:49.907Z,1000.68
2019-04-03T10:07:49.867Z,1000.67
2019-04-03T10:08:49.858Z,1000.69
2019-04-03T10:09:49.854Z,1000.73
2019-04-03T10:10:50.067Z,1000.74
2019-04-03T10:11:51.058Z,1000.70
2019-04-03T10:12:49.822Z,1000.71
2019-04-03T10:13:49.877Z,1000.63
2019-04-03T10:14:49.790Z,1000.66
2019-04-03T10:15:49.878Z,1000.68
2019-04-03T10:16:49.819Z,1000.68
2019-04-03T10:17:49.789Z,1000.64
2019-04-03T10:18:49.752Z,1000.69
2019-04-03T10:19:49.838Z,1000.71
2019-04-03T10:20:49.799Z,1000.69
2019-04-03T10:21:51.843Z,1000.71
2019-04-03T10:22:49.706Z,1000.75
2019-04-03T10:23:49.874Z,1000.62
2019-04-03T10:24:49.830Z,1000.70
2019-04-03T10:25:52.521Z,1000.66
2019-04-03T10:26:49.678Z,1000.65
2019-04-03T10:27:49.889Z,1000.59
2019-04-03T10:28:49.641Z,1000.61
2019-04-03T10:29:50.657Z,1000.65
2019-04-03T10:30:51.970Z,1000.59
2019-04-03T10:31:49.628Z,1000.58
2019-04-03T10:32:49.600Z,1000.53
2019-04-03T10:33:49.713Z,1000.57
2019-04-03T10:34:49.568Z,1000.51
2019-04-03T10:35:49.564Z,1000.54
2019-04-03T10:36:49.565Z,1000.61
2019-04-03T10:37:49.782Z,1000.54
2019-04-03T10:38:49.600Z,1000.50
2019-04-03T10:39:51.765Z,1000.50
2019-04-03T10:40:49.747Z,1000.54
2019-04-03T10:41:49.505Z,1000.48
2019-04-03T10:42:49.476Z,1000.44
2019-04-03T10:43:49.465Z,1000.50
2019-04-03T10:44:49.462Z,1000.43
2019-04-03T10:45:49.465Z,1000.45
2019-04-03T10:46:49.923Z,1000.48
2019-04-03T10:47:49.425Z,1000.46
2019-04-03T10:48:49.503Z,1000.50
2019-04-03T10:49:49.411Z,1000.48
2019-04-03T10:50:49.398Z,1000.43
2019-04-03T10:51:49.654Z,1000.41
2019-04-03T10:52:49.430Z,1000.38
2019-04-03T10:53:51.641Z,1000.38
2019-04-03T10:54:49.354Z,1000.37
2019-04-03T10:55:49.341Z,1000.31
2019-04-03T10:56:49.356Z,1000.30
2019-04-03T10:57:49.419Z,1000.30
2019-04-03T10:58:50.405Z,1000.27
2019-04-03T10:59:53.194Z,1000.29
2019-04-03T11:00:50.300Z,1000.33
2019-04-03T11:01:49.302Z,1000.39
2019-04-03T11:02:49.272Z,1000.34
2019-04-03T11:03:49.273Z,1000.33
2019-04-03T11:04:49.249Z,1000.29
2019-04-03T11:05:49.645Z,1000.28
2019-04-03T11:06:49.303Z,1000.35
2019-04-03T11:07:49.219Z,1000.25
2019-04-03T11:08:49.216Z,1000.33
2019-04-03T11:09:49.192Z,1000.31
2019-04-03T11:10:49.187Z,1000.26
2019-04-03T11:11:49.189Z,1000.26
2019-04-03T11:12:49.167Z,1000.29
2019-04-03T11:13:49.152Z,1000.28
2019-04-03T11:14:49.437Z,1000.26
2019-04-03T11:15:49.130Z,1000.27
2019-04-03T11:16:49.139Z,1000.26
2019-04-03T11:17:49.988Z,1000.26
2019-04-03T11:18:58.562Z,1000.19
2019-04-03T11:19:50.100Z,1000.18
2019-04-03T11:20:49.091Z,1000.23
2019-04-03T11:21:49.104Z,1000.11
2019-04-03T11:22:49.200Z,1000.10
2019-04-03T11:23:49.227Z,1000.08
2019-04-03T11:24:49.069Z,1000.09
2019-04-03T11:25:49.151Z,1000.11
2019-04-03T11:26:50.829Z,1000.03
2019-04-03T11:27:49.062Z,1000.06
2019-04-03T11:28:49.198Z,1000.08
2019-04-03T11:29:49.024Z,1000.17
2019-04-03T11:30:49.618Z,1000.06
2019-04-03T11:31:49.027Z,999.98
2019-04-03T11:32:48.975Z,999.99
2019-04-03T11:33:51.293Z,999.99
2019-04-03T11:34:49.963Z,999.98
2019-04-03T11:35:48.980Z,999.96
2019-04-03T11:36:48.914Z,999.97
2019-04-03T11:37:48.928Z,999.98
2019-04-03T11:38:48.904Z,999.95
2019-04-03T11:40:01.039Z,999.93
2019-04-03T11:40:50.796Z,999.96
2019-04-03T11:41:48.886Z,999.88
2019-04-03T11:42:48.874Z,999.79
2019-04-03T11:43:48.855Z,999.85
2019-04-03T11:44:49.199Z,999.83
2019-04-03T11:45:48.840Z,999.82
2019-04-03T11:46:48.981Z,999.81
2019-04-03T11:47:48.836Z,999.80
2019-04-03T11:48:49.265Z,999.84
2019-04-03T11:49:51.421Z,999.81
2019-04-03T11:50:48.940Z,999.72
2019-04-03T11:51:48.775Z,999.76
2019-04-03T11:52:51.252Z,999.80
2019-04-03T11:53:49.049Z,999.77
2019-04-03T11:54:48.747Z,999.65
2019-04-03T11:55:48.862Z,999.70
2019-04-03T11:56:49.042Z,999.66
2019-04-03T11:57:49.591Z,999.66
2019-04-03T11:58:49.950Z,999.65
2019-04-03T11:59:49.051Z,999.68
2019-04-03T12:00:48.679Z,999.66
2019-04-03T12:01:48.680Z,999.61
2019-04-03T12:02:48.659Z,999.51
2019-04-03T12:03:50.725Z,999.55
2019-04-03T12:04:48.701Z,999.53
2019-04-03T12:05:48.640Z,999.44
2019-04-03T12:06:49.795Z,999.56